Time;durP1;ratioP1;P1;durP2;ratioP2;P2;SDS_P1;SDS_P2;PMS_P1;PMS_P2;Temp;Humidity;BMP_temperature;BMP_pressure;BME280_temperature;BME280_humidity;BME280_pressure;Samples;Min_cycle;Max_cycle;Signal;HPM_P1;HPM_P2
2021/07/28 00:02:18;;;;;;;5.53;5.22;;;;;;;16.11;93.00;100689.16;4388696;32;20521;-67
2021/07/28 00:04:43;;;;;;;5.57;5.28;;;;;;;16.13;92.38;100669.56;4373641;32;20144;-67
2021/07/28 00:07:09;;;;;;;6.78;6.47;;;;;;;15.81;92.69;100621.69;4389226;32;20080;-66
2021/07/28 00:09:34;;;;;;;5.37;5.18;;;;;;;16.15;93.11;100672.09;4385668;32;20139;-67
2021/07/28 00:12:00;;;;;;;6.35;6.05;;;;;;;16.17;92.48;100672.81;4387331;32;20103;-67
2021/07/28 00:14:25;;;;;;;5.12;4.93;;;;;;;16.15;91.66;100672.94;4373497;32;21708;-67
2021/07/28 00:16:50;;;;;;;4.93;4.72;;;;;;;16.05;91.60;100645.47;4389798;32;20073;-67
2021/07/28 00:19:22;;;;;;;5.68;5.37;;;;;;;16.12;91.55;100670.53;4373848;32;20370;-67
2021/07/28 00:24:34;;;;;;;5.00;4.70;;;;;;;16.10;92.50;100664.50;4392280;32;20149;-67
2021/07/28 00:27:00;;;;;;;5.22;5.03;;;;;;;16.07;91.37;100658.59;4389845;32;20432;-66
2021/07/28 00:29:26;;;;;;;5.10;4.90;;;;;;;15.54;91.61;100574.34;4388788;32;20645;-67
2021/07/28 00:31:51;;;;;;;5.00;4.80;;;;;;;16.02;92.22;100653.66;4386842;32;20128;-67
2021/07/28 00:34:17;;;;;;;5.50;5.28;;;;;;;16.05;92.40;100652.56;4379918;32;20551;-67
2021/07/28 00:36:42;;;;;;;5.43;5.22;;;;;;;16.06;91.77;100646.34;4376806;32;20104;-67
2021/07/28 00:39:07;;;;;;;7.05;6.65;;;;;;;16.09;91.35;100652.22;4381679;32;20077;-67
2021/07/28 00:41:33;;;;;;;5.60;5.20;;;;;;;16.04;91.06;100648.25;4376220;32;20072;-67
2021/07/28 00:43:58;;;;;;;5.07;4.87;;;;;;;16.04;92.30;100646.44;4394340;32;20077;-68
2021/07/28 00:46:23;;;;;;;5.00;4.80;;;;;;;15.70;92.30;100596.03;4374726;32;21120;-67
2021/07/28 00:48:49;;;;;;;5.00;4.80;;;;;;;15.99;91.37;100638.00;4382683;32;20166;-67
2021/07/28 00:51:14;;;;;;;6.85;6.55;;;;;;;16.02;91.60;100637.78;4377238;32;20092;-67
2021/07/28 00:53:39;;;;;;;5.75;5.45;;;;;;;15.78;91.84;100616.66;4380660;32;20096;-67
2021/07/28 00:56:05;;;;;;;6.37;6.07;;;;;;;15.51;91.07;100590.44;4390474;32;20716;-68
2021/07/28 00:58:33;;;;;;;5.30;5.00;;;;;;;15.80;91.65;100645.66;4377151;32;20423;-67
2021/07/28 01:00:59;;;;;;;5.25;5.03;;;;;;;15.83;91.72;100640.97;4373349;32;20100;-67
2021/07/28 01:03:24;;;;;;;5.97;5.62;;;;;;;15.82;91.24;100644.56;4384779;32;20061;-67
2021/07/28 01:05:50;;;;;;;5.10;4.80;;;;;;;15.77;92.12;100633.47;4386030;32;20074;-68
2021/07/28 01:08:15;;;;;;;5.10;4.90;;;;;;;15.70;91.82;100614.56;4379967;32;20168;-67
2021/07/28 01:10:41;;;;;;;5.05;4.85;;;;;;;15.81;92.52;100636.75;4399276;32;20064;-67
2021/07/28 01:13:07;;;;;;;6.78;6.47;;;;;;;15.81;92.14;100632.28;4393987;32;20096;-68
2021/07/28 01:18:02;;;;;;;5.70;5.45;;;;;;;15.82;91.45;100630.50;4392457;32;20177;-67
2021/07/28 01:20:38;;;;;;;5.20;4.95;;;;;;;15.75;92.10;100625.69;4375771;32;20420;-67
2021/07/28 01:23:05;;;;;;;6.68;6.37;;;;;;;15.70;91.57;100617.19;4381607;32;20310;-67
2021/07/28 01:25:34;;;;;;;5.45;5.20;;;;;;;15.64;92.07;100617.66;4379940;32;20626;-67
2021/07/28 01:28:00;;;;;;;5.82;5.53;;;;;;;15.59;92.52;100617.16;4388218;32;20390;-68
2021/07/28 01:30:25;;;;;;;5.12;4.93;;;;;;;15.58;92.23;100619.94;4379238;32;20222;-67
2021/07/28 01:32:51;;;;;;;5.03;4.82;;;;;;;15.54;91.99;100616.66;4386813;32;20187;-67
2021/07/28 01:35:16;;;;;;;5.20;5.00;;;;;;;15.51;92.17;100606.31;4375270;32;20515;-67
2021/07/28 01:37:43;;;;;;;5.05;4.85;;;;;;;15.49;92.41;100610.84;4378924;32;20676;-67
2021/07/28 01:40:09;;;;;;;6.85;6.55;;;;;;;15.45;92.17;100601.47;4369975;32;20658;-67
2021/07/28 01:42:44;;;;;;;4.75;4.55;;;;;;;15.32;92.14;100596.25;4386274;32;20080;-67
2021/07/28 01:45:10;;;;;;;5.07;4.87;;;;;;;15.38;92.70;100608.19;4384239;32;20087;-67
2021/07/28 01:47:36;;;;;;;4.80;4.60;;;;;;;15.22;92.55;100590.78;4387915;32;20559;-67
2021/07/28 01:50:01;;;;;;;4.95;4.70;;;;;;;14.31;92.54;100437.97;4379981;32;20651;-67
2021/07/28 01:52:26;;;;;;;5.37;5.18;;;;;;;15.29;92.64;100607.03;4382184;32;20088;-68
2021/07/28 01:54:52;;;;;;;4.80;4.60;;;;;;;15.06;93.03;100575.22;4392434;32;20069;-67
2021/07/28 01:57:17;;;;;;;5.45;5.25;;;;;;;15.28;93.40;100605.38;4371600;32;20080;-67
2021/07/28 01:59:42;;;;;;;4.87;4.68;;;;;;;15.26;92.68;100602.84;4386199;32;20069;-67
2021/07/28 02:02:08;;;;;;;6.82;6.53;;;;;;;15.25;92.85;100605.59;4377221;32;20150;-67
2021/07/28 02:04:33;;;;;;;5.05;4.85;;;;;;;15.19;93.37;100606.03;4378424;32;20105;-67
2021/07/28 02:06:59;;;;;;;5.37;5.15;;;;;;;15.18;93.42;100605.19;4376728;32;20068;-67
2021/07/28 02:09:24;;;;;;;5.18;4.97;;;;;;;15.13;93.49;100610.81;4372836;32;21554;-67
2021/07/28 02:11:49;;;;;;;4.90;4.70;;;;;;;15.07;93.71;100616.53;4393109;32;20447;-68
2021/07/28 02:14:15;;;;;;;8.23;7.50;;;;;;;15.04;93.72;100615.94;4375913;32;20330;-67
2021/07/28 02:16:40;;;;;;;5.20;5.00;;;;;;;15.02;93.81;100609.91;4388827;32;20111;-68
2021/07/28 02:19:07;;;;;;;7.12;6.82;;;;;;;14.36;93.62;100507.16;4379324;32;20662;-67
2021/07/28 02:21:33;;;;;;;5.07;4.87;;;;;;;15.02;94.24;100615.19;4381543;32;20934;-67
2021/07/28 02:23:59;;;;;;;5.45;5.15;;;;;;;14.94;93.59;100606.00;4376986;32;20057;-68
2021/07/28 02:26:24;;;;;;;4.80;4.60;;;;;;;15.00;93.85;100611.81;4374918;32;20096;-67
2021/07/28 02:28:52;;;;;;;4.90;4.70;;;;;;;15.00;93.91;100611.81;4381158;32;20062;-67
2021/07/28 02:31:17;;;;;;;5.78;5.43;;;;;;;15.00;93.90;100610.00;4386522;32;20095;-68
2021/07/28 02:33:42;;;;;;;4.70;4.50;;;;;;;15.06;94.73;100614.03;4369504;32;20874;-67
2021/07/28 02:36:08;;;;;;;5.15;4.85;;;;;;;15.15;94.20;100610.69;4389093;32;20081;-67
2021/07/28 02:38:33;;;;;;;5.10;4.90;;;;;;;15.23;93.32;100608.31;4366500;32;20075;-67
2021/07/28 02:40:58;;;;;;;5.22;5.00;;;;;;;15.29;93.67;100610.53;4384429;32;20303;-68
2021/07/28 02:43:24;;;;;;;5.05;4.85;;;;;;;15.19;93.65;100579.59;4378880;32;21166;-67
2021/07/28 02:45:49;;;;;;;5.00;4.80;;;;;;;15.39;92.99;100607.22;4393707;32;20096;-67
2021/07/28 02:48:15;;;;;;;7.35;6.95;;;;;;;15.42;92.99;100601.72;4378811;32;20127;-67
2021/07/28 02:50:40;;;;;;;5.78;5.47;;;;;;;15.46;93.23;100604.00;4375096;32;20084;-67
2021/07/28 02:53:05;;;;;;;6.62;6.32;;;;;;;15.19;92.08;100556.63;4375799;32;20837;-68
2021/07/28 02:55:31;;;;;;;5.40;5.10;;;;;;;15.54;92.20;100603.44;4377139;32;20085;-67
2021/07/28 02:57:56;;;;;;;5.07;4.87;;;;;;;15.56;92.60;100602.34;4377815;32;20061;-66
2021/07/28 03:00:21;;;;;;;5.93;5.53;;;;;;;15.52;91.71;100594.78;4392026;32;20479;-67
2021/07/28 03:02:47;;;;;;;5.03;4.82;;;;;;;15.46;91.79;100587.31;4393005;32;20200;-67
2021/07/28 03:05:14;;;;;;;6.68;6.37;;;;;;;15.30;92.71;100558.50;4378919;32;20128;-67
2021/07/28 03:07:39;;;;;;;5.10;4.80;;;;;;;15.51;93.36;100591.25;4386403;32;20078;-67
2021/07/28 03:10:05;;;;;;;6.35;6.05;;;;;;;15.55;91.99;100590.09;4386179;32;20060;-67
2021/07/28 03:12:30;;;;;;;5.22;5.03;;;;;;;15.56;91.77;100586.50;4374772;32;20090;-67
2021/07/28 03:14:56;;;;;;;4.90;4.70;;;;;;;15.59;92.08;100589.84;4383305;32;20094;-67
2021/07/28 03:17:21;;;;;;;5.87;5.57;;;;;;;15.59;92.52;100582.75;4377983;32;20617;-67
2021/07/28 03:19:47;;;;;;;5.12;4.82;;;;;;;15.03;91.44;100485.56;4388248;32;20124;-67
2021/07/28 03:22:12;;;;;;;7.00;6.70;;;;;;;15.64;91.24;100583.28;4383505;32;20057;-67
2021/07/28 03:24:37;;;;;;;5.53;5.22;;;;;;;15.64;91.96;100575.34;4387440;32;20601;-67
2021/07/28 03:27:03;;;;;;;6.40;6.03;;;;;;;15.63;92.07;100576.28;4386902;32;20080;-67
2021/07/28 03:29:28;;;;;;;4.95;4.75;;;;;;;15.59;91.48;100566.06;4398075;32;20099;-67
2021/07/28 03:31:54;;;;;;;5.07;4.87;;;;;;;15.60;91.13;100578.34;4385287;32;20077;-67
2021/07/28 03:34:19;;;;;;;5.45;5.25;;;;;;;15.50;91.04;100576.37;4377913;32;20113;-68
2021/07/28 03:36:44;;;;;;;5.50;5.20;;;;;;;15.31;92.14;100554.88;4385553;32;20076;-67
2021/07/28 03:39:10;;;;;;;7.07;6.68;;;;;;;15.32;92.75;100564.53;4376162;32;20089;-67
2021/07/28 03:41:35;;;;;;;5.37;5.10;;;;;;;15.27;91.97;100574.59;4376502;32;20606;-67
2021/07/28 03:44:00;;;;;;;5.90;5.60;;;;;;;15.24;93.05;100569.53;4390791;32;20095;-68
2021/07/28 03:46:26;;;;;;;5.37;5.15;;;;;;;15.27;92.98;100567.50;4376044;32;20092;-67
2021/07/28 03:48:52;;;;;;;6.30;5.90;;;;;;;15.21;92.88;100551.25;4399526;32;20092;-66
2021/07/28 03:51:17;;;;;;;5.37;5.15;;;;;;;15.23;93.38;100554.63;4380970;32;20094;-67
2021/07/28 03:53:43;;;;;;;5.00;4.80;;;;;;;15.41;93.49;100579.69;4375654;32;20088;-67
2021/07/28 03:56:08;;;;;;;7.22;6.68;;;;;;;15.46;93.28;100590.78;4394020;32;20088;-68
2021/07/28 03:58:33;;;;;;;5.32;5.12;;;;;;;15.50;93.22;100580.81;4374002;32;20095;-67
2021/07/28 04:00:59;;;;;;;5.35;5.00;;;;;;;15.54;93.05;100579.63;4383496;32;20139;-67
2021/07/28 04:03:24;;;;;;;5.00;4.80;;;;;;;15.56;92.09;100578.56;4378754;32;21479;-67
2021/07/28 04:05:56;;;;;;;5.30;4.90;;;;;;;15.60;92.70;100586.28;4390185;32;20123;-68
2021/07/28 04:08:21;;;;;;;5.00;4.80;;;;;;;15.60;92.30;100580.97;4386496;32;20521;-68
2021/07/28 04:10:48;;;;;;;5.10;4.90;;;;;;;15.60;92.13;100584.47;4387861;32;20319;-67
2021/07/28 04:13:13;;;;;;;6.72;6.43;;;;;;;15.62;91.73;100587.00;4387241;32;20069;-67
2021/07/28 04:15:39;;;;;;;5.22;4.82;;;;;;;15.66;91.66;100591.94;4377119;32;20346;-68
2021/07/28 04:18:04;;;;;;;5.25;5.03;;;;;;;15.71;91.72;100591.59;4390402;32;20648;-68
2021/07/28 04:20:29;;;;;;;5.72;5.35;;;;;;;15.66;91.34;100581.34;4378888;32;20089;-68
2021/07/28 04:22:55;;;;;;;5.30;5.00;;;;;;;15.75;92.00;100599.22;4392757;32;20145;-67
2021/07/28 04:25:21;;;;;;;5.80;5.50;;;;;;;15.76;91.11;100597.41;4378583;32;20908;-68
2021/07/28 04:27:46;;;;;;;5.20;5.00;;;;;;;15.77;91.64;100599.09;4381609;32;20603;-67
2021/07/28 04:30:12;;;;;;;6.93;6.62;;;;;;;15.80;92.23;100608.62;4374566;32;20080;-68
2021/07/28 04:32:37;;;;;;;5.00;4.80;;;;;;;14.75;91.54;100432.16;4378162;32;20087;-67
2021/07/28 04:35:03;;;;;;;6.07;5.78;;;;;;;15.81;91.52;100608.47;4387463;32;20258;-67
2021/07/28 04:37:28;;;;;;;4.95;4.70;;;;;;;15.83;91.03;100601.25;4378868;32;20595;-67
2021/07/28 04:39:55;;;;;;;5.35;5.15;;;;;;;15.89;90.72;100615.84;4386382;32;20077;-68
2021/07/28 04:42:20;;;;;;;5.10;4.90;;;;;;;15.93;90.50;100604.88;4386495;32;21330;-68
2021/07/28 04:44:46;;;;;;;4.80;4.60;;;;;;;15.90;90.36;100610.44;4393586;32;20231;-67
2021/07/28 04:47:11;;;;;;;6.90;6.60;;;;;;;15.91;90.54;100613.91;4391147;32;20511;-67
2021/07/28 04:49:36;;;;;;;5.18;4.97;;;;;;;15.90;90.77;100614.91;4377529;32;20095;-67
2021/07/28 04:52:02;;;;;;;6.28;5.97;;;;;;;15.92;91.48;100615.63;4394584;32;20068;-68
2021/07/28 04:54:27;;;;;;;5.97;5.57;;;;;;;15.93;91.27;100623.41;4387608;32;20083;-67
2021/07/28 04:56:52;;;;;;;5.55;5.25;;;;;;;15.95;91.17;100618.00;4395256;32;20550;-68
2021/07/28 04:59:18;;;;;;;5.55;5.25;;;;;;;15.96;91.79;100619.72;4378108;32;20095;-67
2021/07/28 05:01:43;;;;;;;5.60;5.30;;;;;;;15.95;90.72;100608.25;4380330;32;20135;-67
2021/07/28 05:04:09;;;;;;;7.18;6.78;;;;;;;15.97;91.12;100605.50;4371081;32;20077;-67
2021/07/28 05:06:35;;;;;;;5.20;5.00;;;;;;;15.99;90.88;100603.59;4378144;32;20172;-67
2021/07/28 05:09:01;;;;;;;5.60;5.35;;;;;;;15.91;91.05;100588.28;4367776;32;20327;-67
2021/07/28 05:11:26;;;;;;;5.90;5.57;;;;;;;16.06;90.32;100606.63;4384657;32;20548;-67
2021/07/28 05:13:51;;;;;;;5.30;5.00;;;;;;;16.05;90.66;100602.28;4391099;32;20087;-67
2021/07/28 05:16:17;;;;;;;5.87;5.57;;;;;;;16.00;91.07;100586.75;4373744;32;20091;-67
2021/07/28 05:18:42;;;;;;;5.80;5.50;;;;;;;16.11;90.95;100599.16;4374350;32;20089;-67
2021/07/28 05:21:07;;;;;;;7.35;6.95;;;;;;;16.15;90.16;100592.66;4392302;32;20083;-67
2021/07/28 05:23:33;;;;;;;5.00;4.70;;;;;;;16.18;91.07;100599.53;4372997;32;20412;-67
2021/07/28 05:25:59;;;;;;;5.45;5.22;;;;;;;16.24;90.28;100601.72;4389940;32;20092;-68
2021/07/28 05:28:25;;;;;;;5.53;5.20;;;;;;;16.28;90.18;100597.88;4375135;32;20076;-66
2021/07/28 05:30:50;;;;;;;5.70;5.40;;;;;;;16.39;90.44;100597.03;4385296;32;20131;-67
2021/07/28 05:33:15;;;;;;;7.05;6.65;;;;;;;16.42;89.27;100602.09;4378437;32;20072;-66
2021/07/28 05:35:47;;;;;;;5.45;5.15;;;;;;;15.83;90.15;100499.88;4385666;32;20610;-67
2021/07/28 05:38:13;;;;;;;5.55;5.25;;;;;;;16.47;89.64;100586.66;4383333;32;20098;-66
2021/07/28 05:40:38;;;;;;;5.60;5.37;;;;;;;16.50;89.29;100589.09;4367266;32;20631;-67
2021/07/28 05:43:03;;;;;;;7.32;6.93;;;;;;;16.51;89.98;100580.16;4377045;32;20073;-67
2021/07/28 05:45:29;;;;;;;5.35;5.00;;;;;;;16.59;89.84;100587.50;4376113;32;22524;-67
2021/07/28 05:47:54;;;;;;;5.30;5.10;;;;;;;16.63;89.27;100589.78;4376869;32;20068;-67
2021/07/28 05:50:19;;;;;;;5.80;5.50;;;;;;;16.80;89.45;100587.59;4378836;32;20080;-67
2021/07/28 05:52:45;;;;;;;5.20;4.90;;;;;;;16.95;88.64;100589.03;4386409;32;20742;-67
2021/07/28 05:55:10;;;;;;;9.10;8.70;;;;;;;17.00;88.01;100584.22;4380584;32;20077;-67
2021/07/28 05:57:36;;;;;;;5.57;5.28;;;;;;;16.96;87.08;100582.78;4394153;32;20065;-67
2021/07/28 06:00:03;;;;;;;6.53;6.22;;;;;;;16.96;88.06;100577.50;4396023;32;20073;-68
2021/07/28 06:02:28;;;;;;;5.12;4.93;;;;;;;16.98;87.41;100580.00;4373908;32;20147;-67
2021/07/28 06:04:53;;;;;;;5.22;4.97;;;;;;;16.98;88.00;100572.03;4389325;32;20069;-67
2021/07/28 06:07:20;;;;;;;5.97;5.68;;;;;;;17.03;87.12;100575.16;4371202;32;20092;-67
2021/07/28 06:09:45;;;;;;;5.32;5.12;;;;;;;17.04;87.36;100572.41;4389077;32;20142;-67
2021/07/28 06:12:10;;;;;;;5.20;4.97;;;;;;;17.22;86.94;100585.09;4391017;32;20072;-67
2021/07/28 06:14:36;;;;;;;5.68;5.28;;;;;;;17.30;86.39;100582.69;4390815;32;20868;-67
2021/07/28 06:17:01;;;;;;;6.80;6.50;;;;;;;17.31;85.47;100589.66;4377499;32;20068;-68
2021/07/28 06:19:27;;;;;;;5.50;5.20;;;;;;;17.26;85.50;100582.09;4377099;32;20615;-67
2021/07/28 06:21:52;;;;;;;5.37;5.07;;;;;;;17.39;85.99;100589.87;4383043;32;20075;-67
2021/07/28 06:24:17;;;;;;;5.97;5.60;;;;;;;17.45;85.26;100581.41;4372982;32;20104;-67
2021/07/28 06:26:43;;;;;;;5.85;5.55;;;;;;;17.50;84.74;100581.00;4391612;32;20069;-67
2021/07/28 06:29:08;;;;;;;5.03;4.82;;;;;;;17.49;85.01;100595.25;4388040;32;20070;-67
2021/07/28 06:31:33;;;;;;;5.07;4.87;;;;;;;17.51;84.93;100591.50;4385457;32;20354;-67
2021/07/28 06:33:59;;;;;;;5.22;4.93;;;;;;;17.43;85.38;100582.50;4383392;32;20081;-67
2021/07/28 06:36:24;;;;;;;5.30;5.07;;;;;;;17.34;86.50;100581.47;4376674;32;20080;-67
2021/07/28 06:38:50;;;;;;;5.95;5.55;;;;;;;17.30;87.12;100578.22;4388025;32;20564;-67
2021/07/28 06:41:15;;;;;;;5.20;5.00;;;;;;;17.02;86.93;100539.88;4379284;32;20475;-66
2021/07/28 06:43:40;;;;;;;5.10;4.90;;;;;;;17.34;87.25;100582.31;4376118;32;20362;-66
2021/07/28 06:46:06;;;;;;;7.00;6.70;;;;;;;17.40;87.02;100570.34;4375282;32;20061;-66
2021/07/28 06:48:31;;;;;;;5.00;4.80;;;;;;;17.48;86.87;100577.66;4381014;32;20641;-66
2021/07/28 06:50:56;;;;;;;5.05;4.85;;;;;;;17.57;87.01;100571.59;4376878;32;20065;-65
2021/07/28 06:53:22;;;;;;;5.18;4.87;;;;;;;17.61;85.92;100578.31;4383124;32;20062;-65
2021/07/28 06:55:49;;;;;;;5.60;5.30;;;;;;;17.70;85.55;100582.00;4381935;32;20081;-66
2021/07/28 06:58:14;;;;;;;7.20;6.80;;;;;;;17.83;86.37;100582.69;4383314;32;20060;-67
2021/07/28 07:00:39;;;;;;;5.70;5.40;;;;;;;18.10;85.36;100571.53;4381462;32;20539;-67
2021/07/28 07:03:05;;;;;;;7.90;7.50;;;;;;;18.46;83.48;100573.78;4372314;32;20164;-67
2021/07/28 07:05:30;;;;;;;5.20;5.00;;;;;;;18.67;81.73;100579.87;4371478;32;20068;-67
2021/07/28 07:07:55;;;;;;;5.25;5.05;;;;;;;18.79;81.48;100572.66;4384001;32;20069;-66
2021/07/28 07:10:21;;;;;;;5.97;5.68;;;;;;;18.91;80.81;100573.38;4382802;32;20518;-67
2021/07/28 07:12:46;;;;;;;5.60;5.32;;;;;;;19.16;80.26;100576.50;4388105;32;20657;-67
2021/07/28 07:15:12;;;;;;;7.05;6.62;;;;;;;19.24;78.40;100540.22;4384532;32;20073;-68
2021/07/28 07:17:37;;;;;;;5.87;5.32;;;;;;;19.77;77.64;100562.09;4390557;32;20187;-66
2021/07/28 07:20:03;;;;;;;5.57;5.32;;;;;;;19.97;77.10;100571.69;4388785;32;20088;-68
2021/07/28 07:22:29;;;;;;;5.78;5.47;;;;;;;20.22;76.47;100572.03;4389182;32;20074;-68
2021/07/28 07:24:54;;;;;;;5.18;4.90;;;;;;;20.07;74.13;100559.19;4390530;32;20696;-68
2021/07/28 07:27:19;;;;;;;6.18;5.87;;;;;;;20.10;73.96;100564.22;4372028;32;20154;-68
2021/07/28 07:29:46;;;;;;;5.82;5.53;;;;;;;20.33;73.51;100570.03;4387947;32;20081;-68
2021/07/28 07:32:11;;;;;;;6.97;6.68;;;;;;;20.70;73.23;100569.16;4369890;32;20527;-68
2021/07/28 07:34:37;;;;;;;6.30;5.90;;;;;;;21.22;72.66;100571.22;4397177;32;20085;-69
2021/07/28 07:37:02;;;;;;;6.93;6.62;;;;;;;21.08;70.69;100579.75;4389005;32;20065;-70
2021/07/28 07:39:28;;;;;;;6.00;5.70;;;;;;;20.69;73.04;100574.69;4383651;32;20072;-70
2021/07/28 07:41:53;;;;;;;6.00;5.60;;;;;;;20.38;74.32;100568.75;4395980;32;20815;-68
2021/07/28 07:44:18;;;;;;;6.80;6.40;;;;;;;19.42;76.79;100544.84;4391659;32;20123;-68
2021/07/28 07:46:44;;;;;;;5.65;5.40;;;;;;;19.12;76.94;100622.00;4372881;32;20892;-70
2021/07/28 07:49:09;;;;;;;6.35;6.00;;;;;;;18.61;78.16;100622.94;4391759;32;20638;-69
2021/07/28 07:51:34;;;;;;;5.53;5.28;;;;;;;17.96;78.75;100624.13;4384117;32;20100;-69
2021/07/28 07:54:00;;;;;;;5.93;5.68;;;;;;;17.77;80.73;100623.00;4383592;32;20073;-68
2021/07/28 07:56:25;;;;;;;5.28;5.07;;;;;;;17.67;79.56;100620.25;4367633;32;20504;-69
2021/07/28 07:58:51;;;;;;;5.30;5.07;;;;;;;17.37;82.26;100575.91;4387126;32;20100;-67
2021/07/28 08:01:16;;;;;;;6.18;5.87;;;;;;;17.41;82.27;100608.31;4373244;32;21371;-67
2021/07/28 08:03:42;;;;;;;5.25;5.03;;;;;;;17.35;83.72;100614.97;4393558;32;20069;-66
2021/07/28 08:06:08;;;;;;;5.20;5.00;;;;;;;17.25;83.45;100609.56;4375570;32;20068;-67
2021/07/28 08:08:33;;;;;;;5.50;5.20;;;;;;;17.04;84.23;100608.66;4393993;32;20084;-67
2021/07/28 08:11:00;;;;;;;5.40;5.18;;;;;;;17.04;84.08;100604.22;4370482;32;20073;-69
2021/07/28 08:13:26;;;;;;;5.18;4.97;;;;;;;17.19;83.84;100607.41;4383171;32;20322;-68
2021/07/28 08:15:51;;;;;;;5.00;4.80;;;;;;;17.89;83.23;100610.53;4385231;32;20128;-69
2021/07/28 08:18:17;;;;;;;5.97;5.68;;;;;;;18.38;82.68;100597.53;4381745;32;20298;-69
2021/07/28 08:20:42;;;;;;;5.35;5.05;;;;;;;18.55;80.81;100602.22;4378067;32;20091;-67
2021/07/28 08:23:08;;;;;;;6.82;6.53;;;;;;;18.88;79.62;100602.91;4375980;32;20073;-68
2021/07/28 08:25:33;;;;;;;5.70;5.40;;;;;;;19.09;77.21;100601.00;4368506;32;20558;-69
2021/07/28 08:27:58;;;;;;;13.45;5.62;;;;;;;19.20;77.52;100601.84;4386239;32;20487;-68
2021/07/28 08:30:24;;;;;;;5.40;5.20;;;;;;;19.52;77.67;100607.75;4373144;32;20068;-67
2021/07/28 08:32:49;;;;;;;5.47;5.25;;;;;;;19.76;77.75;100616.31;4386241;32;20080;-67
2021/07/28 08:35:14;;;;;;;7.22;6.82;;;;;;;19.77;77.84;100613.50;4381748;32;20084;-67
2021/07/28 08:37:40;;;;;;;5.30;5.10;;;;;;;19.95;77.12;100607.47;4378099;32;20077;-67
2021/07/28 08:40:10;;;;;;;6.57;6.28;;;;;;;20.15;76.20;100605.59;4379812;32;20534;-68
2021/07/28 08:42:36;;;;;;;5.68;5.37;;;;;;;20.15;75.52;100601.09;4388414;32;20096;-67
2021/07/28 08:45:02;;;;;;;5.87;5.60;;;;;;;20.18;75.98;100611.47;4377489;32;20085;-70
2021/07/28 08:47:27;;;;;;;5.55;5.28;;;;;;;20.15;72.25;100611.75;4369686;32;21872;-67
2021/07/28 08:49:52;;;;;;;5.28;5.07;;;;;;;20.01;73.83;100605.06;4389934;32;20566;-68
2021/07/28 08:52:19;;;;;;;6.12;5.82;;;;;;;19.71;72.94;100523.56;4374827;32;20065;-67
2021/07/28 08:54:44;;;;;;;5.20;5.00;;;;;;;20.27;73.77;100597.28;4378413;32;20083;-68
2021/07/28 08:57:10;;;;;;;6.62;6.32;;;;;;;20.39;72.77;100573.13;4395562;32;20448;-68
2021/07/28 08:59:36;;;;;;;5.37;5.18;;;;;;;20.64;73.84;100603.59;4375829;32;20100;-67
2021/07/28 09:02:01;;;;;;;5.95;5.65;;;;;;;20.96;71.89;100591.62;4387817;32;20069;-69
2021/07/28 09:04:27;;;;;;;5.62;5.40;;;;;;;21.16;70.52;100600.34;4377419;32;20349;-67
2021/07/28 09:06:52;;;;;;;5.45;5.25;;;;;;;21.37;68.98;100597.38;4390865;32;20066;-68
2021/07/28 09:09:18;;;;;;;5.80;5.50;;;;;;;21.56;69.72;100596.41;4367689;32;20824;-67
2021/07/28 09:11:57;;;;;;;5.82;5.53;;;;;;;21.67;69.64;100597.03;4390114;32;20630;-67
2021/07/28 09:14:24;;;;;;;5.70;5.40;;;;;;;21.76;68.59;100602.44;4376652;32;20449;-67
2021/07/28 09:16:50;;;;;;;5.60;5.35;;;;;;;20.90;68.77;100459.69;4392435;32;20099;-67
2021/07/28 09:19:38;;;;;;;6.62;6.32;;;;;;;21.66;68.42;100591.81;4387872;32;20118;-67
2021/07/28 09:22:05;;;;;;;6.40;6.10;;;;;;;21.91;67.96;100585.69;4402823;32;20064;-68
2021/07/28 09:24:30;;;;;;;6.07;5.78;;;;;;;22.28;68.19;100595.28;4384801;32;20613;-68
2021/07/28 09:26:56;;;;;;;5.53;5.22;;;;;;;22.73;65.16;100597.81;4381704;32;20084;-68
2021/07/28 09:29:25;;;;;;;5.95;5.65;;;;;;;22.48;64.14;100600.41;4374351;32;20554;-67
2021/07/28 09:32:12;;;;;;;5.68;5.37;;;;;;;22.38;64.85;100597.00;4391244;32;20171;-67
2021/07/28 09:34:38;;;;;;;5.40;5.20;;;;;;;22.39;64.87;100591.50;4386691;32;20061;-69
2021/07/28 09:37:10;;;;;;;6.60;6.30;;;;;;;22.13;65.53;100519.34;4377741;32;20085;-68
2021/07/28 09:39:37;;;;;;;5.97;5.68;;;;;;;22.64;64.18;100583.56;4377643;32;20084;-67
2021/07/28 09:42:10;;;;;;;6.78;6.47;;;;;;;22.98;63.34;100586.19;4386978;32;20153;-68
2021/07/28 09:44:35;;;;;;;;;;;;;;;23.32;62.32;100582.59;4406647;32;20081;-68
2021/07/28 09:47:10;;;;;;;5.90;5.60;;;;;;;22.96;59.64;100590.88;4408709;32;20095;-68
2021/07/28 09:50:02;;;;;;;5.70;5.40;;;;;;;22.43;61.37;100597.34;4385818;32;21151;-68
2021/07/28 09:52:34;;;;;;;5.80;5.50;;;;;;;22.02;61.86;100595.25;4396025;32;20664;-69
2021/07/28 09:55:19;;;;;;;5.57;5.35;;;;;;;21.92;62.00;100595.34;4379870;32;20411;-69
2021/07/28 09:57:44;;;;;;;5.60;5.32;;;;;;;21.94;59.05;100586.34;4382487;32;20092;-71
2021/07/28 10:00:10;;;;;;;7.30;6.93;;;;;;;21.86;58.84;100589.81;4381220;32;20125;-68
2021/07/28 10:02:36;;;;;;;5.60;5.30;;;;;;;22.00;59.60;100591.06;4377183;32;20087;-68
2021/07/28 10:05:03;;;;;;;5.37;5.18;;;;;;;22.27;58.35;100585.59;4393961;32;20057;-68
2021/07/28 10:07:31;;;;;;;5.47;5.28;;;;;;;22.66;58.32;100571.72;4389284;32;21575;-67
2021/07/28 10:10:09;;;;;;;6.37;5.97;;;;;;;22.58;56.99;100552.13;4389535;32;20592;-69
2021/07/28 10:12:34;;;;;;;5.40;5.20;;;;;;;22.44;57.70;100583.00;4383306;32;20065;-67
2021/07/28 10:15:00;;;;;;;5.18;4.97;;;;;;;22.26;58.67;100581.22;4391783;32;20091;-68
2021/07/28 10:17:25;;;;;;;5.90;5.55;;;;;;;22.09;58.25;100577.59;4385401;32;20147;-68
2021/07/28 10:19:51;;;;;;;5.40;5.10;;;;;;;21.92;59.67;100584.66;4391488;32;20081;-68
2021/07/28 10:22:17;;;;;;;6.43;6.12;;;;;;;22.32;59.32;100573.59;4376634;32;20091;-68
2021/07/28 10:24:46;;;;;;;5.82;5.53;;;;;;;22.58;58.96;100571.69;4374919;32;20064;-68
2021/07/28 10:27:11;;;;;;;6.95;6.65;;;;;;;23.09;57.33;100569.00;4370945;32;20085;-68
2021/07/28 10:29:36;;;;;;;5.80;5.50;;;;;;;23.39;56.13;100566.69;4387938;32;20085;-68
2021/07/28 10:32:02;;;;;;;6.87;6.57;;;;;;;23.53;54.76;100562.50;4377183;32;20175;-70
2021/07/28 10:34:29;;;;;;;5.70;5.40;;;;;;;23.62;55.88;100556.16;4388899;32;20810;-69
2021/07/28 10:37:01;;;;;;;5.50;5.20;;;;;;;22.98;54.28;100555.91;4393620;32;20132;-68
2021/07/28 10:39:51;;;;;;;5.62;5.32;;;;;;;22.78;54.60;100555.37;4404606;32;20593;-68
2021/07/28 10:42:17;;;;;;;6.75;6.45;;;;;;;22.73;54.48;100563.03;4384045;32;20069;-65
2021/07/28 10:45:09;;;;;;;5.43;5.22;;;;;;;22.57;53.57;100558.47;4387792;32;20108;-68
2021/07/28 10:47:35;;;;;;;5.30;5.10;;;;;;;22.67;52.83;100561.84;4408974;32;20618;-68
2021/07/28 10:50:03;;;;;;;6.20;5.90;;;;;;;22.62;52.30;100558.81;4387035;32;20081;-68
2021/07/28 10:52:39;;;;;;;5.37;5.18;;;;;;;22.41;53.62;100564.59;4372204;32;20073;-68
2021/07/28 10:55:04;;;;;;;5.65;5.35;;;;;;;22.44;54.05;100562.44;4389944;32;20080;-69
2021/07/28 10:57:32;;;;;;;6.00;5.70;;;;;;;22.41;52.86;100564.59;4399299;32;20123;-68
2021/07/28 10:59:58;;;;;;;5.62;5.32;;;;;;;21.19;52.97;100422.09;4404787;32;20061;-70
2021/07/28 11:02:24;;;;;;;5.60;5.30;;;;;;;22.14;54.31;100570.94;4373111;32;20151;-68
2021/07/28 11:05:18;;;;;;;16.20;15.40;;;;;;;22.34;52.41;100558.22;4299566;32;20282;-71
2021/07/28 11:08:06;;;;;;;5.25;5.05;;;;;;;22.76;52.29;100554.69;4401086;32;20060;-68
2021/07/28 11:10:31;;;;;;;5.65;5.40;;;;;;;21.98;52.88;100428.22;4396696;32;20762;-69
2021/07/28 11:12:56;;;;;;;5.37;4.93;;;;;;;22.59;53.74;100548.44;4411477;32;20085;-68
2021/07/28 11:15:22;;;;;;;5.40;5.20;;;;;;;22.58;53.34;100554.81;4379286;32;20658;-69
2021/07/28 11:17:53;;;;;;;5.70;5.40;;;;;;;22.55;52.96;100557.78;4392535;32;20096;-67
2021/07/28 11:20:27;;;;;;;5.70;5.40;;;;;;;22.60;54.08;100542.94;4408557;32;20810;-69
2021/07/28 11:22:52;;;;;;;5.72;5.43;;;;;;;22.92;51.72;100549.37;4390438;32;20068;-68
2021/07/28 11:25:17;;;;;;;5.70;5.40;;;;;;;23.18;51.02;100551.12;4378792;32;20087;-68
2021/07/28 11:28:05;;;;;;;5.60;5.30;;;;;;;23.82;49.97;100549.44;4375126;32;20081;-67